Bedford, MA

12:01 PM EST on December 05, 2016 (GMT -0500)
Old Depot Area | | Change Station

Elev 130 ft 42.49 °N, 71.28 °W | Updated 1 second ago

Light Snow
Light Snow Mist
33.1 °F
Feels Like 33 °F
N
0.0
Wind Variable Wind from North
Gusts 0.0 mph

Today
High -- | Low -- °F
--% Chance of Precip.
Yesterday
High -- | Low -- °F
Precip. -- in
Pressure 29.99 in
Visibility 0.8 miles
Clouds Overcast 500 ft
Windchill 33 °F
Dew Point Not available.
Humidity Not available.
Rainfall 0.00 in
Snow Depth Not available.
6:59 AM 4:12 PM
Waxing Crescent, 33% visible
METAR KBED 051656Z 00000KT 3/4SM R11/4500VP6000FT -SN BR OVC005 00/M02 A2993 RMK AO2 SLP153 P0003 T00001017
Pressure 29.99 in
Visibility 0.8 miles
Clouds Overcast 500 ft
Windchill 33 °F
Dew Point Not available.
Humidity Not available.
Rainfall 0.00 in
Snow Depth Not available.
6:59 AM 4:12 PM
Waxing Crescent, 33% visible
METAR KBED 051656Z 00000KT 3/4SM R11/4500VP6000FT -SN BR OVC005 00/M02 A2993 RMK AO2 SLP153 P0003 T00001017

10-Day Weather Forecast

Almanac

Astronomy

Dec. 05, 2016 Rise Set
Actual Time
Civil Twilight
Nautical Twilight
Astronomical Twilight
Moon
Length of Visible Light
Length of Day
Tomorrow will be .
, % of the Moon is Illuminated

Today's Extremes

State Highs State Lows

Community

WunderPhotos

Upload Photos

1,955,850 photos uploaded!

WunderBlog® & News

Nearby

Air Quality

  Air Quality AQ Index Pollutant
Not available.

Snow Depth

Station Depth Elevation

Earthquake Activity

City Distance Mag. Time & Date
Minimum magnitude displayed is 2.5.

Coastal Water Temperatures

Place Temperature

Stations

Nearby Weather Stations

Station Location Temp. Windchill Dew Point Humidity Wind Precip. Elev Updated Type
                   

Watches & Warnings

There are currently no watches in effect.